Time;durP1;ratioP1;P1;durP2;ratioP2;P2;SDS_P1;SDS_P2;PMS_P1;PMS_P2;Temp;Humidity;BMP_temperature;BMP_pressure;BME280_temperature;BME280_humidity;BME280_pressure;Samples;Min_cycle;Max_cycle;Signal;HPM_P1;HPM_P2
2021/08/19 00:00:42;;;;;;;3.43;3.13;;;23.20;61.80;;;;;;5108236;28;20205;-62
2021/08/19 00:03:13;;;;;;;3.90;3.10;;;23.20;61.80;;;;;;5106353;27;20209;-63
2021/08/19 00:05:44;;;;;;;5.03;3.03;;;23.10;62.50;;;;;;5107591;28;20215;-63
2021/08/19 00:08:15;;;;;;;4.53;3.20;;;23.10;61.80;;;;;;5102920;27;20350;-63
2021/08/19 00:10:47;;;;;;;5.53;3.47;;;23.10;61.70;;;;;;5080945;28;20228;-63
2021/08/19 00:13:17;;;;;;;4.67;3.30;;;23.10;61.90;;;;;;5112314;27;20197;-63
2021/08/19 00:15:47;;;;;;;3.87;3.20;;;23.10;61.90;;;;;;5085813;28;20200;-63
2021/08/19 00:18:17;;;;;;;3.07;2.77;;;23.10;61.90;;;;;;5108877;27;20889;-63
2021/08/19 00:20:47;;;;;;;3.53;3.23;;;23.10;61.90;;;;;;5101513;28;20222;-63
2021/08/19 00:23:16;;;;;;;4.53;3.37;;;23.10;62.00;;;;;;5094730;27;20634;-63
2021/08/19 00:25:47;;;;;;;3.40;2.93;;;23.10;61.70;;;;;;5083883;28;20188;-63
2021/08/19 00:28:16;;;;;;;3.70;3.33;;;23.10;61.80;;;;;;5110500;27;20201;-63
2021/08/19 00:30:45;;;;;;;5.33;3.63;;;23.10;62.00;;;;;;5092025;28;20196;-63
2021/08/19 00:33:16;;;;;;;5.00;3.47;;;23.10;61.90;;;;;;5103091;28;20204;-63
2021/08/19 00:35:46;;;;;;;5.47;3.53;;;23.00;61.80;;;;;;5107527;27;20801;-63
2021/08/19 00:38:16;;;;;;;3.77;3.23;;;23.10;61.90;;;;;;5106427;27;20224;-62
2021/08/19 00:40:46;;;;;;;4.90;3.33;;;23.00;61.80;;;;;;5112536;27;20204;-63
2021/08/19 00:43:19;;;;;;;4.40;3.40;;;23.00;62.00;;;;;;5074225;28;20196;-63
2021/08/19 00:45:48;;;;;;;4.70;3.60;;;23.00;62.00;;;;;;5102122;27;20185;-63
2021/08/19 00:48:20;;;;;;;6.57;3.77;;;23.00;62.00;;;;;;5079553;28;20208;-63
2021/08/19 00:50:50;;;;;;;5.00;3.20;;;23.00;61.90;;;;;;5079032;28;20251;-63
2021/08/19 00:53:21;;;;;;;5.40;3.53;;;23.00;62.00;;;;;;5102788;27;20204;-63
2021/08/19 00:55:53;;;;;;;4.37;3.37;;;23.00;62.00;;;;;;5104042;28;20791;-63
2021/08/19 00:58:23;;;;;;;4.47;3.57;;;23.00;62.00;;;;;;5102523;28;20650;-63
2021/08/19 01:00:53;;;;;;;4.67;3.60;;;23.00;62.00;;;;;;5105605;28;20219;-63
2021/08/19 01:03:25;;;;;;;3.80;3.23;;;23.00;62.10;;;;;;5110010;27;20211;-62
2021/08/19 01:05:54;;;;;;;3.97;3.57;;;23.00;62.20;;;;;;5092071;28;20277;-63
2021/08/19 01:08:26;;;;;;;5.20;3.23;;;23.00;62.10;;;;;;5105528;28;20200;-62
2021/08/19 01:10:57;;;;;;;4.47;3.43;;;22.90;62.10;;;;;;5092170;28;20203;-63
2021/08/19 01:13:28;;;;;;;3.73;3.40;;;22.90;62.30;;;;;;5104748;28;20211;-63
2021/08/19 01:16:00;;;;;;;3.90;3.37;;;23.00;62.20;;;;;;5100389;28;20208;-63
2021/08/19 01:18:45;;;;;;;5.30;3.37;;;22.90;62.20;;;;;;5104508;28;20638;-63
2021/08/19 01:21:18;;;;;;;4.57;3.50;;;23.00;62.40;;;;;;5083438;28;20208;-62
2021/08/19 01:23:51;;;;;;;4.63;3.33;;;23.00;62.30;;;;;;5099804;28;20208;-63
2021/08/19 01:26:21;;;;;;;3.30;3.00;;;22.90;62.20;;;;;;5102210;28;20198;-63
2021/08/19 01:28:55;;;;;;;3.83;3.03;;;22.90;63.00;;;;;;5093908;28;20208;-63
2021/08/19 01:31:26;;;;;;;4.70;3.57;;;22.90;62.30;;;;;;5104139;28;20652;-63
2021/08/19 01:33:58;;;;;;;4.00;3.60;;;22.90;62.40;;;;;;5086309;28;20618;-63
2021/08/19 01:36:26;;;;;;;4.73;3.40;;;22.90;62.40;;;;;;5104649;28;20231;-63
2021/08/19 01:38:58;;;;;;;4.60;3.30;;;22.90;62.40;;;;;;5090722;28;20192;-63
2021/08/19 01:41:27;;;;;;;3.87;3.37;;;22.90;62.50;;;;;;5104522;28;20208;-63
2021/08/19 01:43:57;;;;;;;4.27;3.47;;;22.90;62.60;;;;;;5097785;28;20215;-63
2021/08/19 01:46:29;;;;;;;4.13;3.07;;;22.90;62.60;;;;;;5103279;28;20193;-63
2021/08/19 01:49:02;;;;;;;6.40;3.10;;;22.90;62.60;;;;;;5103382;28;20261;-63
2021/08/19 01:51:33;;;;;;;5.77;3.20;;;22.80;62.60;;;;;;5083094;28;20269;-63
2021/08/19 01:54:03;;;;;;;3.53;3.20;;;22.90;62.70;;;;;;5110227;28;20236;-63
2021/08/19 01:56:33;;;;;;;5.07;3.27;;;22.80;62.60;;;;;;5101713;27;20270;-63
2021/08/19 01:59:03;;;;;;;4.33;3.30;;;22.90;62.80;;;;;;5101111;28;20196;-63
2021/08/19 02:01:47;;;;;;;4.33;2.80;;;22.90;63.00;;;;;;5081337;28;20764;-63
2021/08/19 02:04:19;;;;;;;4.53;2.70;;;22.90;63.00;;;;;;5108339;28;20203;-62
2021/08/19 02:06:49;;;;;;;4.60;3.10;;;22.90;63.20;;;;;;5106378;28;20656;-63
2021/08/19 02:09:17;;;;;;;3.43;3.10;;;22.90;62.90;;;;;;5089413;28;20215;-63
2021/08/19 02:11:49;;;;;;;3.30;3.00;;;22.90;62.90;;;;;;5095752;28;20204;-63
2021/08/19 02:14:22;;;;;;;3.70;2.90;;;22.90;63.00;;;;;;5111338;28;20200;-63
2021/08/19 02:16:50;;;;;;;4.90;3.17;;;22.90;63.10;;;;;;5101254;28;20687;-63
2021/08/19 02:19:27;;;;;;;3.83;2.90;;;22.80;62.80;;;;;;5088682;28;20690;-64
2021/08/19 02:21:57;;;;;;;3.53;2.87;;;22.90;63.50;;;;;;5100657;28;20220;-63
2021/08/19 02:24:28;;;;;;;8.00;3.30;;;22.80;63.60;;;;;;5109744;28;20195;-63
2021/08/19 02:26:57;;;;;;;5.03;3.13;;;22.80;63.60;;;;;;5091829;28;20226;-62
2021/08/19 02:29:27;;;;;;;3.43;2.90;;;22.80;63.70;;;;;;5101353;28;20591;-63
2021/08/19 02:31:58;;;;;;;3.33;3.03;;;22.80;63.40;;;;;;5105543;28;20205;-62
2021/08/19 02:34:29;;;;;;;4.03;3.07;;;22.80;63.30;;;;;;5099939;28;20195;-63
2021/08/19 02:36:56;;;;;;;5.57;2.90;;;22.90;63.40;;;;;;5087896;28;20228;-63
2021/08/19 02:39:26;;;;;;;6.03;3.23;;;22.90;63.30;;;;;;5084787;28;20197;-62
2021/08/19 02:41:57;;;;;;;3.27;2.83;;;22.80;63.40;;;;;;5087300;28;20243;-62
2021/08/19 02:44:27;;;;;;;4.93;3.03;;;22.90;63.10;;;;;;5087327;28;20200;-63
2021/08/19 02:46:59;;;;;;;3.77;2.87;;;22.80;63.20;;;;;;5109614;28;20234;-63
2021/08/19 02:49:30;;;;;;;4.30;2.83;;;22.80;63.30;;;;;;5086990;28;20224;-63
2021/08/19 02:52:02;;;;;;;3.90;3.23;;;22.80;63.50;;;;;;5106634;28;20196;-63
2021/08/19 02:54:34;;;;;;;4.40;3.00;;;22.80;63.50;;;;;;5097453;28;20235;-62
2021/08/19 02:57:04;;;;;;;4.00;3.00;;;22.80;63.60;;;;;;5103516;28;20209;-63
2021/08/19 02:59:33;;;;;;;3.67;3.20;;;22.80;63.60;;;;;;5100498;28;20204;-63
2021/08/19 03:02:02;;;;;;;3.90;3.10;;;22.80;63.80;;;;;;5103446;28;20261;-63
2021/08/19 03:04:34;;;;;;;6.30;3.47;;;22.80;63.40;;;;;;5103439;28;20690;-63
2021/08/19 03:07:07;;;;;;;3.60;3.07;;;22.80;63.20;;;;;;5107313;28;20228;-62
2021/08/19 03:09:38;;;;;;;4.30;3.90;;;22.80;63.00;;;;;;5102499;28;20188;-62
2021/08/19 03:12:09;;;;;;;6.33;4.13;;;22.80;63.00;;;;;;5099867;28;20193;-62
2021/08/19 03:14:41;;;;;;;5.13;3.83;;;22.80;62.90;;;;;;5106500;28;20205;-64
2021/08/19 03:17:14;;;;;;;5.27;3.90;;;22.80;62.80;;;;;;5095760;28;20275;-64
2021/08/19 03:19:45;;;;;;;6.27;4.10;;;22.80;63.10;;;;;;5108225;28;20261;-65
2021/08/19 03:22:17;;;;;;;5.20;3.80;;;22.80;62.90;;;;;;5100950;28;20205;-64
2021/08/19 03:24:49;;;;;;;6.73;4.40;;;22.80;63.00;;;;;;5107063;28;20196;-64
2021/08/19 03:27:28;;;;;;;6.23;4.23;;;22.80;63.10;;;;;;5080431;28;20204;-64
2021/08/19 03:29:59;;;;;;;6.03;3.80;;;22.80;63.10;;;;;;5104462;28;20216;-64
2021/08/19 03:32:29;;;;;;;5.73;4.10;;;22.80;62.90;;;;;;5110157;28;20212;-64
2021/08/19 03:34:58;;;;;;;8.30;4.23;;;22.80;62.90;;;;;;5099737;28;20204;-64
2021/08/19 03:37:29;;;;;;;5.53;4.50;;;22.80;62.90;;;;;;5104671;28;20212;-64
2021/08/19 03:40:00;;;;;;;4.40;4.00;;;22.80;62.90;;;;;;5097058;28;20216;-64
2021/08/19 03:42:29;;;;;;;5.70;4.03;;;22.80;63.00;;;;;;5111510;28;20653;-64
2021/08/19 03:45:02;;;;;;;6.50;4.20;;;22.80;63.30;;;;;;5094937;28;20419;-63
2021/08/19 03:47:33;;;;;;;5.97;4.30;;;22.80;63.00;;;;;;5103884;28;20202;-64
2021/08/19 03:50:02;;;;;;;5.90;4.27;;;22.80;63.00;;;;;;5099181;28;20189;-64
2021/08/19 03:52:30;;;;;;;4.63;4.20;;;22.80;63.00;;;;;;5108591;28;20253;-63
2021/08/19 03:55:12;;;;;;;5.60;4.30;;;22.70;63.10;;;;;;5100012;28;20295;-64
2021/08/19 03:57:43;;;;;;;6.17;4.87;;;22.80;63.40;;;;;;5083857;28;20588;-64
2021/08/19 04:00:14;;;;;;;8.47;5.17;;;22.80;62.90;;;;;;5079103;28;20272;-63
2021/08/19 04:02:46;;;;;;;6.33;5.37;;;22.80;62.90;;;;;;5108554;28;20219;-64
2021/08/19 04:05:18;;;;;;;5.80;4.93;;;22.70;62.80;;;;;;5108743;28;20280;-65
2021/08/19 04:07:50;;;;;;;8.80;5.40;;;22.70;62.70;;;;;;5084456;28;20246;-64
2021/08/19 04:10:20;;;;;;;6.53;5.20;;;22.70;62.70;;;;;;5099560;28;20207;-64
2021/08/19 04:12:49;;;;;;;11.47;6.30;;;22.70;62.60;;;;;;5097852;28;20205;-64
2021/08/19 04:15:19;;;;;;;6.93;6.23;;;22.70;62.60;;;;;;5103091;28;20240;-63
2021/08/19 04:17:52;;;;;;;7.10;6.30;;;22.70;62.70;;;;;;5100464;28;20259;-64
2021/08/19 04:20:25;;;;;;;9.93;6.50;;;22.70;62.60;;;;;;5110329;28;20208;-64
2021/08/19 04:23:13;;;;;;;9.73;6.17;;;22.70;62.60;;;;;;5079177;28;20229;-65
2021/08/19 04:26:02;;;;;;;6.70;5.73;;;22.70;62.60;;;;;;5114735;28;20226;-62
2021/08/19 04:28:33;;;;;;;6.60;5.80;;;22.70;62.70;;;;;;5096026;28;20212;-64
2021/08/19 04:31:04;;;;;;;7.33;6.03;;;22.70;62.60;;;;;;5110963;28;20209;-64
2021/08/19 04:33:35;;;;;;;7.80;6.00;;;22.70;62.60;;;;;;5107742;28;20196;-65
2021/08/19 04:36:06;;;;;;;7.13;5.80;;;22.70;62.50;;;;;;5095627;28;20255;-67
2021/08/19 04:38:34;;;;;;;5.93;4.97;;;22.70;62.40;;;;;;5108552;28;20204;-63
2021/08/19 04:41:06;;;;;;;9.97;6.20;;;22.70;62.30;;;;;;5084569;28;20618;-64
2021/08/19 04:43:36;;;;;;;9.83;6.13;;;22.60;62.30;;;;;;5093828;28;20196;-64
2021/08/19 04:46:06;;;;;;;8.43;5.60;;;22.70;62.30;;;;;;5106930;28;20211;-63
2021/08/19 04:48:37;;;;;;;9.00;6.17;;;22.70;62.30;;;;;;5075262;28;20207;-64
2021/08/19 04:51:07;;;;;;;9.63;6.23;;;22.60;62.20;;;;;;5105666;27;20208;-64
2021/08/19 04:53:38;;;;;;;6.37;5.73;;;22.70;62.20;;;;;;5107735;28;20552;-64
2021/08/19 04:56:08;;;;;;;7.83;5.80;;;22.60;62.20;;;;;;5093347;27;20675;-64
2021/08/19 04:58:38;;;;;;;7.07;5.60;;;22.70;62.80;;;;;;5107528;28;20701;-65
2021/08/19 05:01:08;;;;;;;7.20;5.50;;;22.70;62.20;;;;;;5100043;28;20700;-64
2021/08/19 05:03:39;;;;;;;5.90;5.30;;;22.70;62.00;;;;;;5105012;28;20197;-64
2021/08/19 05:06:14;;;;;;;9.47;6.27;;;22.60;62.10;;;;;;5097423;28;20624;-64
2021/08/19 05:08:43;;;;;;;6.47;5.87;;;22.60;62.00;;;;;;5102491;28;20579;-64
2021/08/19 05:11:14;;;;;;;6.83;5.27;;;22.60;62.00;;;;;;5096201;28;20211;-64
2021/08/19 05:13:44;;;;;;;6.63;5.53;;;22.70;62.00;;;;;;5106908;27;20761;-64
2021/08/19 05:16:13;;;;;;;5.80;5.13;;;22.70;62.10;;;;;;5104096;28;20192;-65
2021/08/19 05:18:43;;;;;;;8.27;5.80;;;22.70;62.60;;;;;;5084011;28;20196;-65
2021/08/19 05:21:15;;;;;;;7.97;5.93;;;22.70;62.00;;;;;;5077777;28;20201;-65
2021/08/19 05:23:45;;;;;;;5.90;5.30;;;22.70;61.90;;;;;;5070874;28;20213;-64
2021/08/19 05:26:26;;;;;;;6.27;5.27;;;22.70;62.00;;;;;;5085608;28;20638;-64
2021/08/19 05:28:55;;;;;;;6.03;5.47;;;22.60;62.00;;;;;;5076617;28;20201;-64
2021/08/19 05:31:29;;;;;;;7.63;6.00;;;22.70;61.90;;;;;;5079838;28;20302;-64
2021/08/19 05:34:05;;;;;;;6.13;5.53;;;22.70;61.90;;;;;;5092155;28;20595;-64
2021/08/19 05:36:35;;;;;;;6.30;5.70;;;22.60;62.10;;;;;;5090097;28;20204;-65
2021/08/19 05:39:04;;;;;;;6.07;5.50;;;22.70;62.10;;;;;;5076026;28;20270;-65
2021/08/19 05:41:35;;;;;;;6.93;5.90;;;22.60;62.00;;;;;;5069748;28;20193;-63
2021/08/19 05:44:16;;;;;;;7.47;6.07;;;22.60;61.90;;;;;;5089164;28;20712;-63
2021/08/19 05:46:43;;;;;;;6.40;5.33;;;22.70;62.00;;;;;;5081814;28;20197;-64
2021/08/19 05:49:14;;;;;;;8.10;6.13;;;22.60;61.80;;;;;;5053469;28;20254;-64
2021/08/19 05:51:46;;;;;;;15.30;6.80;;;22.70;61.90;;;;;;5074978;28;20252;-64
2021/08/19 05:54:16;;;;;;;8.63;7.13;;;22.60;62.00;;;;;;5067944;28;20204;-64
2021/08/19 05:56:45;;;;;;;10.43;6.80;;;22.60;62.00;;;;;;5074108;28;20202;-65
2021/08/19 05:59:13;;;;;;;8.37;7.27;;;22.70;62.10;;;;;;5064681;28;20258;-65
2021/08/19 06:01:44;;;;;;;12.63;7.70;;;22.70;62.00;;;;;;5071314;28;20213;-64
2021/08/19 06:04:14;;;;;;;12.10;8.97;;;22.60;62.00;;;;;;5086593;28;20682;-64
2021/08/19 06:06:43;;;;;;;11.23;8.10;;;22.60;62.30;;;;;;5064092;28;20201;-65
2021/08/19 06:09:13;;;;;;;9.90;7.50;;;22.60;62.30;;;;;;5072224;28;20291;-65
2021/08/19 06:11:44;;;;;;;12.60;7.77;;;22.60;62.10;;;;;;5071917;28;20316;-64
2021/08/19 06:14:16;;;;;;;10.63;8.50;;;22.60;62.40;;;;;;5083005;28;20205;-64
2021/08/19 06:16:44;;;;;;;11.67;7.63;;;22.60;62.50;;;;;;5078664;28;20263;-64
2021/08/19 06:19:15;;;;;;;9.93;7.77;;;22.60;62.40;;;;;;5086853;28;20254;-63
2021/08/19 06:21:46;;;;;;;10.03;7.97;;;22.60;62.30;;;;;;5093876;28;20193;-66
2021/08/19 06:24:16;;;;;;;11.60;7.53;;;22.60;62.20;;;;;;5083976;28;20193;-66
2021/08/19 06:26:44;;;;;;;10.93;8.60;;;22.60;62.30;;;;;;5106321;28;20203;-66
2021/08/19 06:29:16;;;;;;;12.90;8.63;;;22.60;62.30;;;;;;5075888;28;20193;-66
2021/08/19 06:31:46;;;;;;;10.63;8.60;;;22.60;62.30;;;;;;5100510;28;20196;-65
2021/08/19 06:34:14;;;;;;;9.20;8.00;;;22.60;62.20;;;;;;5099746;28;20844;-65
2021/08/19 06:36:44;;;;;;;9.03;8.10;;;22.60;62.10;;;;;;5101167;28;20203;-65
2021/08/19 06:39:18;;;;;;;9.07;8.17;;;22.60;62.20;;;;;;5060044;27;20253;-65
2021/08/19 06:41:45;;;;;;;12.60;8.60;;;22.60;62.20;;;;;;5105694;28;20789;-66
2021/08/19 06:44:16;;;;;;;11.27;8.17;;;22.60;62.10;;;;;;5095096;28;20192;-67
2021/08/19 06:46:47;;;;;;;10.20;7.70;;;22.60;62.00;;;;;;5104140;28;20196;-65
2021/08/19 06:49:16;;;;;;;10.90;7.50;;;22.60;62.10;;;;;;5099712;28;20212;-65
2021/08/19 06:51:47;;;;;;;8.50;7.17;;;22.60;62.00;;;;;;5107662;27;20192;-64
2021/08/19 06:54:18;;;;;;;8.63;7.50;;;22.60;62.00;;;;;;5087601;28;20630;-64
2021/08/19 06:56:52;;;;;;;13.07;8.93;;;22.60;62.10;;;;;;5104854;28;20193;-65
2021/08/19 06:59:23;;;;;;;8.90;7.43;;;22.60;62.60;;;;;;5110546;28;20212;-65
2021/08/19 07:01:53;;;;;;;10.30;7.90;;;22.60;61.90;;;;;;5104249;28;20623;-64
2021/08/19 07:04:30;;;;;;;11.77;8.47;;;22.60;62.00;;;;;;5106319;28;20568;-64
2021/08/19 07:07:03;;;;;;;8.80;7.90;;;22.60;62.10;;;;;;5100407;28;20192;-66
2021/08/19 07:09:46;;;;;;;10.83;8.87;;;22.60;62.00;;;;;;5105740;28;20282;-66
2021/08/19 07:12:14;;;;;;;9.83;8.43;;;22.60;62.40;;;;;;5107192;28;20632;-64
2021/08/19 07:14:43;;;;;;;14.07;8.47;;;22.60;62.10;;;;;;5104934;28;20203;-63
2021/08/19 07:17:20;;;;;;;11.73;9.00;;;22.60;62.70;;;;;;5081619;28;20228;-66
2021/08/19 07:19:57;;;;;;;11.13;9.20;;;22.60;62.50;;;;;;5106515;28;20277;-67
2021/08/19 07:22:27;;;;;;;11.50;9.73;;;22.60;62.50;;;;;;5109208;28;20212;-63
2021/08/19 07:24:58;;;;;;;9.60;8.60;;;22.60;62.60;;;;;;5109147;28;20247;-64
2021/08/19 07:27:31;;;;;;;9.97;8.40;;;22.60;62.40;;;;;;5106795;28;20216;-64
2021/08/19 07:30:05;;;;;;;13.43;10.20;;;22.60;62.40;;;;;;5106310;28;20202;-65
2021/08/19 07:32:36;;;;;;;10.60;9.30;;;22.60;62.80;;;;;;5102094;28;20249;-65
2021/08/19 07:35:06;;;;;;;10.23;9.23;;;22.60;62.80;;;;;;5109916;28;20208;-65
2021/08/19 07:37:34;;;;;;;12.03;9.77;;;22.60;62.80;;;;;;5109282;28;20232;-66
2021/08/19 07:40:12;;;;;;;14.50;10.83;;;22.60;63.20;;;;;;5081332;28;20630;-66
2021/08/19 07:42:41;;;;;;;15.53;12.23;;;22.60;63.30;;;;;;5103006;28;20219;-67
2021/08/19 07:45:14;;;;;;;16.03;13.57;;;22.60;63.60;;;;;;5089478;28;20192;-65
2021/08/19 07:47:44;;;;;;;16.40;14.23;;;22.60;63.80;;;;;;5088329;28;20223;-65
2021/08/19 07:50:15;;;;;;;16.73;13.30;;;22.50;64.10;;;;;;5079695;28;20208;-66
2021/08/19 07:52:54;;;;;;;16.80;13.77;;;22.50;64.30;;;;;;5103597;28;20227;-67
2021/08/19 07:55:23;;;;;;;17.33;13.60;;;22.50;64.50;;;;;;5103597;28;20210;-67
2021/08/19 07:57:53;;;;;;;13.30;11.93;;;22.50;64.30;;;;;;5103997;28;20193;-67
2021/08/19 08:00:26;;;;;;;12.87;11.53;;;22.50;63.90;;;;;;5099667;28;20196;-66
2021/08/19 08:02:57;;;;;;;14.07;12.50;;;22.50;64.10;;;;;;5085007;28;20276;-66
2021/08/19 08:05:39;;;;;;;15.43;13.03;;;22.50;64.10;;;;;;5071096;28;20250;-65
2021/08/19 08:08:11;;;;;;;15.90;13.53;;;22.50;64.80;;;;;;5101387;28;20200;-65
2021/08/19 08:10:45;;;;;;;15.67;12.97;;;22.50;64.50;;;;;;5084224;28;20188;-66
2021/08/19 08:13:15;;;;;;;15.37;13.57;;;22.50;64.30;;;;;;5096952;28;20201;-66
2021/08/19 08:15:45;;;;;;;17.03;13.97;;;22.50;64.40;;;;;;5104068;28;20219;-66
2021/08/19 08:18:17;;;;;;;18.80;13.63;;;22.50;64.50;;;;;;5098111;28;20252;-66
2021/08/19 08:20:49;;;;;;;18.67;14.43;;;22.50;64.40;;;;;;5087630;28;20204;-66
2021/08/19 08:23:21;;;;;;;18.40;13.47;;;22.50;64.50;;;;;;5086600;28;20216;-66
2021/08/19 08:25:51;;;;;;;15.93;13.97;;;22.50;64.80;;;;;;5092167;28;20658;-66
2021/08/19 08:28:26;;;;;;;14.63;13.10;;;22.50;64.60;;;;;;5080353;28;20204;-66
2021/08/19 08:31:03;;;;;;;14.90;12.37;;;22.50;64.50;;;;;;5096150;28;20193;-66
2021/08/19 08:33:33;;;;;;;17.03;12.10;;;22.50;64.60;;;;;;5099673;28;20641;-66
2021/08/19 08:36:04;;;;;;;13.07;11.67;;;22.60;65.20;;;;;;5108974;28;20249;-66
2021/08/19 08:38:36;;;;;;;13.57;12.03;;;22.60;65.10;;;;;;5104904;28;20584;-66
2021/08/19 08:41:08;;;;;;;13.83;12.43;;;22.60;65.60;;;;;;5091060;28;20205;-65
2021/08/19 08:43:40;;;;;;;14.20;12.70;;;22.60;65.60;;;;;;5103632;28;20245;-65
2021/08/19 08:46:17;;;;;;;13.97;12.53;;;22.60;65.30;;;;;;5074683;28;20193;-66
2021/08/19 08:48:55;;;;;;;14.57;12.70;;;22.60;65.00;;;;;;5104926;28;20566;-66
2021/08/19 08:51:26;;;;;;;14.00;12.40;;;22.60;64.80;;;;;;5078635;28;20801;-65
2021/08/19 08:53:55;;;;;;;14.93;12.77;;;22.60;64.70;;;;;;5085356;28;20203;-65
2021/08/19 08:56:31;;;;;;;13.63;12.43;;;22.60;64.70;;;;;;5081005;28;20227;-65
2021/08/19 08:59:00;;;;;;;13.23;12.07;;;22.50;64.60;;;;;;5100021;27;20203;-65
2021/08/19 09:01:27;;;;;;;13.30;12.03;;;22.50;64.50;;;;;;5081620;28;20204;-66
2021/08/19 09:03:56;;;;;;;13.23;12.03;;;22.50;64.70;;;;;;5099510;28;20204;-66
2021/08/19 09:06:41;;;;;;;13.50;12.10;;;22.50;64.50;;;;;;5091546;28;20257;-66
2021/08/19 09:09:26;;;;;;;12.50;11.30;;;22.50;64.50;;;;;;5085855;28;20284;-66
2021/08/19 09:12:06;;;;;;;12.80;11.47;;;22.50;64.30;;;;;;5088701;28;20249;-66
2021/08/19 09:14:41;;;;;;;12.10;11.00;;;22.50;64.30;;;;;;5107208;28;20214;-66
2021/08/19 09:17:51;;;;;;;12.30;11.03;;;22.50;64.10;;;;;;5087661;28;20243;-66
2021/08/19 09:20:34;;;;;;;12.63;11.27;;;22.50;63.90;;;;;;5088949;28;20664;-65
2021/08/19 09:23:14;;;;;;;12.93;11.63;;;22.50;64.00;;;;;;5102977;28;20211;-66
2021/08/19 09:25:48;;;;;;;11.63;10.50;;;22.60;64.00;;;;;;5103451;28;20209;-65
2021/08/19 09:28:30;;;;;;;11.87;10.87;;;22.50;63.80;;;;;;5091532;28;20735;-65
2021/08/19 09:31:09;;;;;;;14.00;11.80;;;22.50;63.80;;;;;;5085967;28;20213;-65
2021/08/19 09:33:45;;;;;;;13.17;11.80;;;22.60;63.80;;;;;;5082246;28;20205;-65
2021/08/19 09:36:16;;;;;;;12.97;11.77;;;22.50;63.70;;;;;;5090104;28;20250;-66
2021/08/19 09:38:47;;;;;;;13.67;12.27;;;22.60;63.80;;;;;;5076903;28;20223;-66
2021/08/19 09:41:19;;;;;;;12.10;11.10;;;22.50;63.70;;;;;;5103022;28;20204;-65
2021/08/19 09:43:55;;;;;;;12.63;11.43;;;22.50;63.60;;;;;;5104136;28;20260;-65
2021/08/19 09:46:36;;;;;;;13.80;11.67;;;22.50;63.50;;;;;;5109246;28;20192;-66
2021/08/19 09:49:34;;;;;;;12.30;11.10;;;22.50;63.50;;;;;;5084218;28;20208;-66
2021/08/19 09:52:13;;;;;;;11.80;10.70;;;22.50;63.50;;;;;;5104011;28;20192;-66
2021/08/19 09:54:44;;;;;;;10.83;9.93;;;22.50;63.30;;;;;;5095236;28;20207;-66
2021/08/19 09:57:16;;;;;;;11.40;10.37;;;22.50;63.30;;;;;;5082737;28;20204;-65
2021/08/19 09:59:46;;;;;;;12.43;11.13;;;22.50;63.30;;;;;;5102249;28;20259;-65
2021/08/19 10:02:14;;;;;;;10.60;9.57;;;22.50;63.10;;;;;;5095565;28;20207;-66
2021/08/19 10:04:44;;;;;;;13.23;9.77;;;22.50;63.50;;;;;;5107557;28;20220;-65
2021/08/19 10:07:16;;;;;;;10.97;8.50;;;22.50;62.60;;;;;;5103099;28;20226;-63
2021/08/19 10:09:47;;;;;;;8.53;7.63;;;22.40;62.20;;;;;;5079618;28;20197;-64
2021/08/19 10:12:17;;;;;;;8.00;7.20;;;22.40;62.00;;;;;;5099964;28;20196;-66
2021/08/19 10:14:49;;;;;;;8.20;7.20;;;22.40;62.10;;;;;;5097460;28;20250;-65
2021/08/19 10:17:20;;;;;;;7.73;6.70;;;22.40;62.00;;;;;;5109236;28;20260;-66
2021/08/19 10:19:50;;;;;;;6.77;6.07;;;22.50;62.00;;;;;;5095043;28;20572;-66
2021/08/19 10:22:23;;;;;;;7.37;6.53;;;22.50;62.10;;;;;;5092439;28;20676;-65
2021/08/19 10:24:53;;;;;;;7.73;6.27;;;22.50;61.90;;;;;;5111738;28;20212;-65
2021/08/19 10:27:25;;;;;;;7.93;6.30;;;22.50;62.00;;;;;;5088553;27;20188;-64
2021/08/19 10:30:19;;;;;;;7.03;6.40;;;22.50;62.00;;;;;;5081796;28;20199;-64
2021/08/19 10:32:55;;;;;;;7.43;6.37;;;22.50;62.00;;;;;;5090029;28;20551;-64
2021/08/19 10:35:29;;;;;;;6.90;6.17;;;22.60;62.00;;;;;;5110273;28;20199;-66
2021/08/19 10:38:03;;;;;;;6.70;5.90;;;22.50;62.00;;;;;;5100998;28;20558;-66
2021/08/19 10:40:39;;;;;;;6.03;5.43;;;22.50;62.00;;;;;;5107212;28;20653;-65
2021/08/19 10:43:28;;;;;;;7.53;5.20;;;22.60;62.10;;;;;;5090904;28;20223;-65
2021/08/19 10:46:09;;;;;;;5.80;5.10;;;22.60;61.90;;;;;;5109536;28;20192;-64
2021/08/19 10:48:45;;;;;;;5.90;5.40;;;22.60;61.80;;;;;;5088083;28;20736;-64
2021/08/19 10:51:17;;;;;;;6.10;4.70;;;22.60;62.00;;;;;;5067875;28;20293;-63
2021/08/19 10:53:48;;;;;;;5.50;4.70;;;22.60;61.90;;;;;;5111088;28;20215;-65
2021/08/19 10:56:54;;;;;;;6.50;5.10;;;22.50;61.70;;;;;;5107242;28;20196;-65
2021/08/19 10:59:33;;;;;;;6.50;4.43;;;22.60;61.80;;;;;;5072410;28;20227;-65
2021/08/19 11:02:06;;;;;;;5.53;4.93;;;22.60;61.70;;;;;;5105442;28;20286;-65
2021/08/19 11:04:46;;;;;;;4.63;4.23;;;22.60;61.50;;;;;;5102157;28;20716;-65
2021/08/19 11:08:03;;;;;;;4.63;4.23;;;22.60;61.60;;;;;;5088623;28;20196;-65
2021/08/19 11:10:38;;;;;;;5.47;4.90;;;22.60;61.70;;;;;;5087037;28;20675;-65
2021/08/19 11:13:15;;;;;;;6.60;4.40;;;22.60;61.60;;;;;;5075318;28;20207;-65
2021/08/19 11:15:49;;;;;;;6.37;4.37;;;22.60;61.60;;;;;;5069852;28;20232;-64
2021/08/19 11:18:27;;;;;;;6.73;4.47;;;22.60;61.70;;;;;;5106862;28;20281;-64
2021/08/19 11:20:55;;;;;;;5.67;4.60;;;22.60;61.60;;;;;;5076696;28;20657;-64
2021/08/19 11:23:38;;;;;;;6.93;4.53;;;22.60;61.60;;;;;;5071898;28;20910;-65
2021/08/19 11:26:11;;;;;;;6.63;4.37;;;22.60;61.40;;;;;;5103331;28;20208;-64
2021/08/19 11:28:50;;;;;;;5.10;4.07;;;22.60;61.50;;;;;;5101701;28;20212;-64
2021/08/19 11:31:26;;;;;;;4.47;4.03;;;22.70;62.20;;;;;;5084159;28;20261;-64
2021/08/19 11:34:06;;;;;;;5.47;4.13;;;22.70;61.30;;;;;;5108496;28;20208;-64
2021/08/19 11:36:37;;;;;;;6.13;4.10;;;22.70;61.40;;;;;;5086770;28;20206;-66
2021/08/19 11:39:08;;;;;;;4.93;4.17;;;22.70;61.40;;;;;;5094873;28;20683;-66
2021/08/19 11:41:39;;;;;;;4.87;3.90;;;22.70;61.10;;;;;;5084596;28;20203;-64
2021/08/19 11:44:09;;;;;;;4.23;3.83;;;22.70;61.30;;;;;;5100056;28;20212;-64
2021/08/19 11:47:02;;;;;;;5.23;3.77;;;22.70;61.30;;;;;;5104234;28;20247;-66
2021/08/19 11:49:29;;;;;;;4.07;3.50;;;22.70;61.10;;;;;;5095808;28;20208;-66
2021/08/19 11:52:11;;;;;;;5.50;3.40;;;22.60;61.10;;;;;;5054785;28;20197;-66
2021/08/19 11:54:46;;;;;;;4.30;3.43;;;22.60;61.00;;;;;;5104256;28;20195;-66
2021/08/19 11:57:24;;;;;;;5.00;3.30;;;22.60;61.10;;;;;;5076327;28;20225;-64
2021/08/19 12:00:14;;;;;;;6.53;3.40;;;22.70;61.30;;;;;;5080847;28;20621;-65
2021/08/19 12:02:57;;;;;;;3.90;3.40;;;22.70;61.20;;;;;;5104487;27;20200;-65
2021/08/19 12:05:25;;;;;;;4.00;3.60;;;22.70;61.10;;;;;;5109125;28;20208;-66
2021/08/19 12:07:54;;;;;;;5.83;3.30;;;22.70;61.80;;;;;;5077099;28;20196;-66
2021/08/19 12:10:24;;;;;;;3.83;3.33;;;22.70;61.00;;;;;;5083063;28;20269;-64
2021/08/19 12:12:55;;;;;;;4.10;3.60;;;22.70;60.60;;;;;;5096236;28;20249;-63
2021/08/19 12:15:25;;;;;;;5.27;3.90;;;22.70;60.70;;;;;;5107802;28;20530;-65
2021/08/19 12:18:05;;;;;;;6.03;3.70;;;22.70;60.40;;;;;;5092416;28;20704;-66
2021/08/19 12:20:50;;;;;;;5.90;3.90;;;22.70;60.00;;;;;;5085817;28;20284;-64
2021/08/19 12:23:26;;;;;;;3.63;3.27;;;22.70;60.30;;;;;;5104046;28;20234;-63
2021/08/19 12:26:06;;;;;;;3.80;3.37;;;22.70;60.40;;;;;;5097906;28;20266;-64
2021/08/19 12:28:37;;;;;;;5.70;3.43;;;22.70;60.60;;;;;;5077136;28;20814;-64
2021/08/19 12:31:10;;;;;;;3.77;3.20;;;22.70;61.20;;;;;;5073720;28;20204;-65
2021/08/19 12:33:42;;;;;;;4.87;3.20;;;22.70;60.50;;;;;;5106305;28;20212;-65
2021/08/19 12:36:32;;;;;;;5.03;3.57;;;22.70;60.60;;;;;;5092488;28;20204;-66
2021/08/19 12:39:29;;;;;;;3.67;3.17;;;22.70;60.60;;;;;;5102258;28;20259;-66
2021/08/19 12:42:14;;;;;;;4.50;3.23;;;22.70;60.70;;;;;;5102716;28;20283;-66
2021/08/19 12:45:16;;;;;;;6.30;3.40;;;22.70;60.30;;;;;;5105124;28;20277;-65
2021/08/19 12:48:03;;;;;;;5.60;3.40;;;22.70;60.60;;;;;;5106369;28;20200;-65
2021/08/19 12:50:45;;;;;;;3.60;3.30;;;22.70;60.50;;;;;;5101446;28;20283;-66
2021/08/19 12:53:15;;;;;;;3.73;3.17;;;22.70;60.50;;;;;;5102114;28;20188;-66
2021/08/19 12:55:56;;;;;;;3.40;3.10;;;22.70;60.60;;;;;;5074871;28;20664;-64
2021/08/19 12:58:30;;;;;;;3.67;3.00;;;22.70;60.50;;;;;;5095414;28;20224;-63
2021/08/19 13:01:01;;;;;;;4.17;3.30;;;22.70;60.20;;;;;;5104323;28;20189;-63
2021/08/19 13:03:33;;;;;;;4.73;3.23;;;22.70;60.30;;;;;;5096968;28;20227;-63
2021/08/19 13:06:04;;;;;;;4.13;3.13;;;22.70;60.30;;;;;;5084255;28;20204;-66
2021/08/19 13:08:32;;;;;;;4.20;3.30;;;22.70;60.30;;;;;;5099092;28;20212;-65
2021/08/19 13:11:04;;;;;;;3.50;3.00;;;22.70;60.20;;;;;;5104632;28;20197;-63
2021/08/19 13:13:34;;;;;;;3.30;2.77;;;22.70;60.40;;;;;;5105614;28;20513;-64